Terminal Aerodrome Forecast
Issued by NWS

Home | Current Version | Previous Version | Text Only | Print | Product List | Glossary On
Versions: 1 2 3 4 5 6 7 8 9 10 11 12 13 14 15 16 17 18
000
FTUS44 KMAF 201700
TAFINK
TAF
KINK 201740Z 2018/2118 VRB02KT P6SM FEW250
      TEMPO 2018/2019 BKN005
     FM201900 16007KT P6SM FEW250
     FM211000 18005KT 5SM BR OVC010
      TEMPO 2110/2114 1/4SM FG OVC001=

USA.gov is the U.S. government's official web portal to all federal, state and local government web resources and services.